Accueil
METAR-TAF:

METAR-TAF

Aéroports :

Aéroport international Gregorio-Luperón

Puerto Plata, République dominicaine

latitude: 19-45N, longitude: 070-33W, altitude: 15 m

Observation

Le bulletin a été fait il y a 11 minutes, à 09:00 UTC
Vent calme
Température 20°C
Humidité 100%
Pression 1018 hPa
Visibilité 10 km ou plus
Nuages épars à une hauteur de 1600 ft

METAR: MDPP 280900Z 00000KT 9999 SCT016 20/20 Q1018

Heure: 05:11 (09:11 UTC)

Prévision

Le bulletin a été fait il y a 5 heures et 11 minutes, à 04:00 UTC
Prévision valable du 28 à 06 UTC au 01 à 06 UTC
Vent 4 kt de est
Visibilité 10 km ou plus
Nuages épars à une hauteur de 1600 ft
Probabilité 30%
du 28 à 00 UTC au 28 à 06 UTC
Visibilité: 8000 m
Nuages fragmentés à une hauteur de 1500 ft
pluie faible
Evoluant progressivement
du 28 à 07 UTC au 28 à 09 UTC
Vent kt de nord

TAF: MDPP 280400Z 2806/0106 09004KT 9999 SCT016 PROB30 2800/2806 8000 -RA BKN015 BECMG 2807/2809 00000KT

Observations et prévisions météorologiques de plus de 4000 aéroports (messages METAR et TAF).

Les stations disponibles sont représentées par des disques jaunes et rouges sur la carte.

Passer la souris dessus pour voir le nom de la station.

Cliquer dessus pour voir les observations et prévisions météorologiques.

Pour changer de carte: cliquez sur les boutons verts avec une croix noire pour zoomer, sur le bouton vert avec un tiret pour effectuer un zoom arrière, ou sur les flèches vertes pour les cartes adjacentes.


METAR-TAF: